Time;durP1;ratioP1;P1;durP2;ratioP2;P2;SDS_P1;SDS_P2;PMS_P1;PMS_P2;Temp;Humidity;BMP_temperature;BMP_pressure;BME280_temperature;BME280_humidity;BME280_pressure;Samples;Min_cycle;Max_cycle;Signal;HPM_P1;HPM_P2
2022/04/17 00:01:02;;;;;;;8.82;5.60;;;4.90;99.90;;;;;;5029704;28;20033;-91
2022/04/17 00:03:31;;;;;;;8.10;5.90;;;4.90;99.90;;;;;;5028100;28;20131;-89
2022/04/17 00:05:57;;;;;;;7.90;4.93;;;4.90;99.90;;;;;;5030208;28;20131;-89
2022/04/17 00:08:23;;;;;;;7.22;5.18;;;4.90;99.90;;;;;;5027168;28;20044;-90
2022/04/17 00:10:49;;;;;;;6.65;5.18;;;4.90;99.90;;;;;;5035583;28;20328;-89
2022/04/17 00:14:42;;;;;;;;;;;;;;;;;;;;;
2022/04/17 00:18:35;;;;;;;7.93;5.50;;;4.80;99.90;;;;;;4923557;29;20356;-90
2022/04/17 00:22:26;;;;;;;;;;;;;;;;;;;;;
2022/04/17 00:29:40;;;;;;;7.05;5.28;;;4.80;99.90;;;;;;4945327;28;20062;-90
2022/04/17 00:36:33;;;;;;;;;;;;;;;;;;;;;
2022/04/17 00:39:47;;;;;;;;;;;;;;;;;;;;;
2022/04/17 00:58:33;;;;;;;7.78;6.00;;;4.60;99.90;;;;;;4816237;29;20197;-90
2022/04/17 01:05:19;;;;;;;8.05;6.00;;;4.50;99.90;;;;;;4823666;29;20043;-91
2022/04/17 01:08:27;;;;;;;7.32;6.03;;;4.50;99.90;;;;;;4820818;29;20062;-90
2022/04/17 01:11:09;;;;;;;9.57;6.20;;;4.50;99.90;;;;;;4889022;29;20527;-90
2022/04/17 01:13:57;;;;;;;;;;;;;;;;;;;;;
2022/04/17 01:16:40;;;;;;;9.55;6.38;;;4.50;99.90;;;;;;4952996;28;20133;-90
2022/04/17 01:19:16;;;;;;;7.63;5.93;;;4.50;99.90;;;;;;4998069;28;20226;-89
2022/04/17 01:22:01;;;;;;;7.75;6.05;;;4.50;99.90;;;;;;5028883;28;20522;-91
2022/04/17 01:27:23;;;;;;;8.68;6.22;;;4.50;99.90;;;;;;5048687;28;20079;-90
2022/04/17 01:30:07;;;;;;;8.43;6.75;;;4.50;99.90;;;;;;5029088;28;20124;-90
2022/04/17 01:32:42;;;;;;;8.32;5.80;;;4.40;99.90;;;;;;5043351;28;20037;-88
2022/04/17 01:35:25;;;;;;;9.38;6.65;;;4.30;99.90;;;;;;5048692;28;20082;-89
2022/04/17 01:38:15;;;;;;;7.82;6.43;;;4.20;99.90;;;;;;5016232;28;20485;-89
2022/04/17 01:40:50;;;;;;;8.30;6.00;;;4.20;99.90;;;;;;5006302;28;20045;-90
2022/04/17 01:43:21;;;;;;;;;;;4.10;1.00;;;;;;5020088;28;20044;-91
2022/04/17 01:45:47;;;;;;;8.95;6.30;;;4.00;1.00;;;;;;5029003;28;20083;-90
2022/04/17 01:48:16;;;;;;;9.27;6.50;;;3.90;99.90;;;;;;5031746;28;20052;-89
2022/04/17 01:50:53;;;;;;;7.55;5.78;;;3.90;99.90;;;;;;5043507;28;20602;-90
2022/04/17 01:53:20;;;;;;;9.18;6.85;;;3.90;99.90;;;;;;5023192;28;20037;-90
2022/04/17 01:55:46;;;;;;;11.30;6.47;;;3.80;99.90;;;;;;5015502;28;20036;-90
2022/04/17 01:58:11;;;;;;;9.25;6.45;;;3.80;99.90;;;;;;5030589;28;20032;-90
2022/04/17 02:00:40;;;;;;;11.55;6.82;;;3.80;99.90;;;;;;5034636;28;20052;-89
2022/04/17 02:03:10;;;;;;;9.30;7.22;;;3.70;99.90;;;;;;5030449;28;20036;-91
2022/04/17 02:05:44;;;;;;;10.05;6.90;;;3.70;99.90;;;;;;5031096;28;20519;-89
2022/04/17 02:08:11;;;;;;;10.30;7.15;;;3.60;99.90;;;;;;5033077;28;20045;-89
2022/04/17 02:10:37;;;;;;;10.27;7.03;;;3.60;99.90;;;;;;5037597;28;20523;-88
2022/04/17 02:13:05;;;;;;;10.77;7.57;;;3.60;99.90;;;;;;5026496;28;20056;-90
2022/04/17 02:15:53;;;;;;;10.25;7.10;;;3.60;99.90;;;;;;5010280;28;20049;-89
2022/04/17 02:18:26;;;;;;;8.10;6.65;;;3.50;99.90;;;;;;5028185;28;20037;-90
2022/04/17 02:20:59;;;;;;;9.55;7.55;;;3.50;99.90;;;;;;5009752;28;20040;-88
2022/04/17 02:23:31;;;;;;;10.73;7.97;;;3.50;99.90;;;;;;5010171;28;20052;-89
2022/04/17 02:26:03;;;;;;;10.93;6.78;;;3.50;99.90;;;;;;5025281;28;20044;-90
2022/04/17 02:28:36;;;;;;;12.38;7.32;;;3.40;99.90;;;;;;5015080;28;20041;-90
2022/04/17 02:31:05;;;;;;;11.43;7.63;;;3.40;99.90;;;;;;5021375;28;20033;-91
2022/04/17 02:33:31;;;;;;;11.18;7.30;;;3.40;99.90;;;;;;5010506;28;20429;-90
2022/04/17 02:35:58;;;;;;;10.27;7.38;;;3.30;99.90;;;;;;5009070;28;20037;-90
2022/04/17 02:38:24;;;;;;;11.40;7.40;;;3.30;99.90;;;;;;5007879;28;20064;-91
2022/04/17 02:40:50;;;;;;;10.13;7.72;;;3.30;99.90;;;;;;5007972;28;20041;-89
2022/04/17 02:43:16;;;;;;;10.63;6.90;;;3.30;99.90;;;;;;5009699;28;20079;-90
2022/04/17 02:45:42;;;;;;;11.30;7.85;;;3.30;1.00;;;;;;5004991;28;20060;-92
2022/04/17 02:48:08;;;;;;;10.35;7.47;;;3.30;1.00;;;;;;5006574;28;20613;-90
2022/04/17 02:50:33;;;;;;;9.15;7.65;;;3.30;1.00;;;;;;5007623;28;20077;-90
2022/04/17 02:52:59;;;;;;;11.50;7.88;;;3.20;1.00;;;;;;5013926;28;20115;-90
2022/04/17 02:55:25;;;;;;;10.27;7.57;;;3.20;1.00;;;;;;5012970;28;20039;-90
2022/04/17 02:57:52;;;;;;;9.23;7.63;;;3.10;1.00;;;;;;5011270;28;20041;-90
2022/04/17 03:00:18;;;;;;;11.02;7.40;;;3.10;1.00;;;;;;5011474;28;20040;-90
2022/04/17 03:05:36;;;;;;;10.05;7.68;;;3.10;1.00;;;;;;5027519;28;20465;-89
2022/04/17 03:08:04;;;;;;;11.73;8.07;;;3.00;1.00;;;;;;5008377;28;20152;-90
2022/04/17 03:10:32;;;;;;;8.90;7.07;;;3.00;1.00;;;;;;5020500;28;20033;-92
2022/04/17 03:12:58;;;;;;;10.55;7.60;;;2.90;1.00;;;;;;5048243;28;20106;-91
2022/04/17 03:15:24;;;;;;;10.27;7.65;;;2.80;1.00;;;;;;5040375;28;20035;-90
2022/04/17 03:17:51;;;;;;;9.43;7.68;;;2.80;1.00;;;;;;5031509;28;20136;-90
2022/04/17 03:20:17;;;;;;;10.23;7.85;;;2.80;1.00;;;;;;5037745;28;20040;-91
2022/04/17 03:22:43;;;;;;;9.77;8.00;;;2.80;1.00;;;;;;5034648;28;20079;-90
2022/04/17 03:25:10;;;;;;;10.93;8.27;;;2.80;1.00;;;;;;5031064;28;20032;-90
2022/04/17 03:27:36;;;;;;;11.07;7.90;;;2.80;1.00;;;;;;5039330;28;20032;-91
2022/04/17 03:30:03;;;;;;;11.00;8.70;;;2.80;1.00;;;;;;5039189;28;20040;-90
2022/04/17 03:32:29;;;;;;;10.52;7.88;;;2.70;1.00;;;;;;5036857;28;20461;-90
2022/04/17 03:34:55;;;;;;;10.15;8.15;;;2.70;1.00;;;;;;5037114;28;20032;-89
2022/04/17 03:37:21;;;;;;;11.88;8.00;;;2.60;1.00;;;;;;5032773;28;20126;-90
2022/04/17 03:39:48;;;;;;;10.93;8.23;;;2.60;1.00;;;;;;5031260;28;20079;-90
2022/04/17 03:42:16;;;;;;;10.60;8.35;;;2.60;7.10;;;;;;5037737;28;20479;-90
2022/04/17 03:44:46;;;;;;;13.30;9.10;;;2.50;1.00;;;;;;5035534;28;20068;-91
2022/04/17 03:47:12;;;;;;;12.93;8.52;;;2.60;1.00;;;;;;5032343;28;20044;-90
2022/04/17 03:49:38;;;;;;;9.98;8.10;;;2.50;1.00;;;;;;5030306;28;20041;-90
2022/04/17 03:52:04;;;;;;;9.90;8.30;;;2.40;1.00;;;;;;5038051;28;20548;-91
2022/04/17 03:54:30;;;;;;;10.57;8.55;;;2.40;1.00;;;;;;5051197;28;20056;-91
2022/04/17 03:56:56;;;;;;;10.73;8.73;;;2.40;1.00;;;;;;5033021;28;20040;-90
2022/04/17 03:59:22;;;;;;;11.32;8.27;;;2.40;1.00;;;;;;5037528;28;20103;-90
2022/04/17 04:01:48;;;;;;;12.02;8.52;;;2.40;24.70;;;;;;5034750;28;20068;-89
2022/04/17 04:04:17;;;;;;;12.52;8.10;;;2.40;38.10;;;;;;5032603;28;20078;-89
2022/04/17 04:06:43;;;;;;;11.35;8.73;;;2.40;87.30;;;;;;5038639;28;20101;-90
2022/04/17 04:09:10;;;;;;;11.82;8.88;;;2.30;55.30;;;;;;5032971;28;20208;-90
2022/04/17 04:11:38;;;;;;;12.00;8.68;;;2.20;82.40;;;;;;5032319;28;20036;-89
2022/04/17 04:14:05;;;;;;;11.65;9.02;;;2.20;87.10;;;;;;5027961;28;20052;-91
2022/04/17 04:16:31;;;;;;;11.23;8.90;;;2.30;79.60;;;;;;5031114;28;20047;-92
2022/04/17 04:18:57;;;;;;;12.38;9.30;;;2.20;74.30;;;;;;5028366;28;20033;-89
2022/04/17 04:21:22;;;;;;;11.27;9.35;;;2.20;52.40;;;;;;5034081;28;20603;-90
2022/04/17 04:23:48;;;;;;;11.73;9.25;;;2.30;76.40;;;;;;5034075;28;20032;-92
2022/04/17 04:26:14;;;;;;;11.45;8.95;;;2.20;14.60;;;;;;5036356;28;20059;-90
2022/04/17 04:28:40;;;;;;;13.15;9.15;;;2.20;1.00;;;;;;5046443;28;20144;-89
2022/04/17 04:31:10;;;;;;;13.48;9.32;;;2.20;48.00;;;;;;5032450;28;20122;-90
2022/04/17 04:33:37;;;;;;;12.23;9.80;;;2.20;39.40;;;;;;5026354;28;20040;-90
2022/04/17 04:36:09;;;;;;;12.95;9.50;;;2.20;27.80;;;;;;5033924;28;20063;-90
2022/04/17 04:38:35;;;;;;;11.55;9.88;;;2.20;39.60;;;;;;5018990;28;20040;-90
2022/04/17 04:41:01;;;;;;;12.80;9.75;;;2.20;68.40;;;;;;5029470;28;20502;-89
2022/04/17 04:43:27;;;;;;;12.20;10.10;;;2.20;99.90;;;;;;5028711;28;20047;-88
2022/04/17 04:46:09;;;;;;;13.82;10.20;;;2.30;99.90;;;;;;5029120;28;20059;-91
2022/04/17 04:51:29;;;;;;;10.70;9.52;;;2.30;99.90;;;;;;5044479;28;20040;-91
2022/04/17 04:53:56;;;;;;;15.80;9.18;;;2.30;99.90;;;;;;5031633;28;20039;-91
2022/04/17 04:56:23;;;;;;;11.63;9.40;;;2.30;99.90;;;;;;5027669;28;20063;-90
2022/04/17 04:58:49;;;;;;;13.90;10.40;;;2.30;99.90;;;;;;5027244;28;20082;-90
2022/04/17 05:01:15;;;;;;;12.15;9.60;;;2.30;99.90;;;;;;5027590;28;20039;-89
2022/04/17 05:03:41;;;;;;;11.70;9.77;;;2.30;99.90;;;;;;5047745;28;20036;-91
2022/04/17 05:06:10;;;;;;;13.13;10.30;;;2.40;99.90;;;;;;5032309;28;20529;-92
2022/04/17 05:08:36;;;;;;;16.85;10.57;;;2.50;99.90;;;;;;5027664;28;20047;-92
2022/04/17 05:11:05;;;;;;;14.38;11.00;;;2.50;99.90;;;;;;5037469;28;20478;-90
2022/04/17 05:13:30;;;;;;;14.77;10.55;;;2.70;99.90;;;;;;5024478;28;20145;-91
2022/04/17 05:15:56;;;;;;;12.98;10.40;;;2.80;99.90;;;;;;5030374;28;20490;-91
2022/04/17 05:18:22;;;;;;;11.80;10.00;;;2.80;93.30;;;;;;5046571;28;20036;-90
2022/04/17 05:20:48;;;;;;;15.23;11.50;;;2.90;80.40;;;;;;5028368;28;20040;-89
2022/04/17 05:23:22;;;;;;;13.13;10.40;;;3.00;79.70;;;;;;5036404;28;20130;-90
2022/04/17 05:25:52;;;;;;;13.20;10.55;;;3.10;91.10;;;;;;5053646;28;20044;-91
2022/04/17 05:28:18;;;;;;;16.35;11.23;;;3.20;61.70;;;;;;5036393;28;20040;-92
2022/04/17 05:30:44;;;;;;;18.02;12.05;;;3.30;17.70;;;;;;5033718;28;20032;-90
2022/04/17 05:33:11;;;;;;;14.32;10.55;;;3.40;1.00;;;;;;5051153;28;20048;-90
2022/04/17 05:35:38;;;;;;;17.17;11.05;;;3.50;1.00;;;;;;5031618;28;20525;-92
2022/04/17 05:38:04;;;;;;;12.77;10.20;;;3.60;1.00;;;;;;5051149;28;20078;-89
2022/04/17 05:40:43;;;;;;;15.65;11.23;;;3.70;1.00;;;;;;5049482;28;20429;-89
2022/04/17 05:43:10;;;;;;;13.95;11.32;;;3.90;1.00;;;;;;5031888;28;20033;-92
2022/04/17 05:45:37;;;;;;;12.98;10.88;;;4.00;1.00;;;;;;5031648;28;20050;-89
2022/04/17 05:48:05;;;;;;;14.15;11.30;;;4.10;1.00;;;;;;5031359;28;20045;-92
2022/04/17 05:50:31;;;;;;;17.02;12.25;;;4.20;1.00;;;;;;5037857;28;20039;-91
2022/04/17 05:52:58;;;;;;;16.15;12.45;;;4.30;3.30;;;;;;5032939;28;20040;-91
2022/04/17 05:55:23;;;;;;;16.02;12.32;;;4.40;18.60;;;;;;5034430;28;20440;-90
2022/04/17 05:57:49;;;;;;;14.27;11.93;;;4.50;70.80;;;;;;5038833;28;20052;-89
2022/04/17 06:00:16;;;;;;;17.20;12.20;;;4.70;31.00;;;;;;5034764;28;20039;-90
2022/04/17 06:02:48;;;;;;;15.63;12.25;;;4.80;1.00;;;;;;5047420;28;20063;-90
2022/04/17 06:05:15;;;;;;;16.58;12.32;;;5.00;1.00;;;;;;5063876;28;20396;-91
2022/04/17 06:07:41;;;;;;;20.00;12.82;;;5.10;1.00;;;;;;5030515;28;20072;-90
2022/04/17 06:10:09;;;;;;;16.20;12.77;;;5.30;1.00;;;;;;5030590;28;20482;-92
2022/04/17 06:12:35;;;;;;;16.60;12.45;;;5.50;1.00;;;;;;5035033;28;20205;-92
2022/04/17 06:15:06;;;;;;;15.73;12.13;;;5.50;1.00;;;;;;5026506;28;20118;-91
2022/04/17 06:17:42;;;;;;;16.85;12.48;;;5.60;1.00;;;;;;5030627;28;20036;-90
2022/04/17 06:20:13;;;;;;;14.70;12.18;;;5.80;1.00;;;;;;5031465;28;20032;-90
2022/04/17 06:22:39;;;;;;;14.68;11.90;;;5.90;1.00;;;;;;5028620;28;20303;-90
2022/04/17 06:25:11;;;;;;;15.10;12.45;;;6.00;1.00;;;;;;5030715;28;20032;-91
2022/04/17 06:27:45;;;;;;;15.48;12.40;;;6.20;1.00;;;;;;5029611;28;20040;-91
2022/04/17 06:30:12;;;;;;;15.50;11.80;;;6.30;1.00;;;;;;5041231;28;20415;-92
2022/04/17 06:32:39;;;;;;;15.52;12.10;;;6.40;99.90;;;;;;5031354;28;20147;-90
2022/04/17 06:35:08;;;;;;;15.15;11.70;;;6.50;1.00;;;;;;5029857;28;20373;-91
2022/04/17 06:37:53;;;;;;;14.75;12.10;;;6.70;99.90;;;;;;5030560;28;20044;-91
2022/04/17 06:40:36;;;;;;;14.82;11.68;;;6.70;99.90;;;;;;5030584;28;20257;-90
2022/04/17 06:43:05;;;;;;;14.30;11.48;;;6.90;99.90;;;;;;5039466;28;20529;-90
2022/04/17 06:45:33;;;;;;;14.57;11.68;;;7.00;99.90;;;;;;5046527;28;20036;-90
2022/04/17 06:48:13;;;;;;;16.17;11.55;;;7.20;99.90;;;;;;5031219;28;20123;-91
2022/04/17 06:50:39;;;;;;;13.30;11.70;;;7.30;99.90;;;;;;5027162;28;20076;-92
2022/04/17 06:53:05;;;;;;;16.98;12.07;;;7.50;99.90;;;;;;5026799;28;20044;-91
2022/04/17 06:55:30;;;;;;;16.58;11.80;;;7.60;99.90;;;;;;5031336;28;20036;-91
2022/04/17 06:57:56;;;;;;;13.95;11.40;;;7.70;99.90;;;;;;5030583;28;20472;-92
2022/04/17 07:00:25;;;;;;;13.80;11.38;;;7.80;99.90;;;;;;5027985;28;20040;-92
2022/04/17 07:02:51;;;;;;;15.63;10.65;;;8.00;99.90;;;;;;5032325;28;20094;-90
2022/04/17 07:05:17;;;;;;;15.30;11.48;;;8.10;99.90;;;;;;5027644;28;20044;-91
2022/04/17 07:07:46;;;;;;;13.05;10.77;;;8.20;99.90;;;;;;5029091;28;20043;-90
2022/04/17 07:10:12;;;;;;;12.55;10.60;;;8.20;99.90;;;;;;5024352;28;20399;-90
2022/04/17 07:12:44;;;;;;;14.05;11.02;;;8.30;99.90;;;;;;5048507;28;20129;-92
2022/04/17 07:15:10;;;;;;;12.63;10.80;;;8.40;99.90;;;;;;5030604;28;20520;-92
2022/04/17 07:17:37;;;;;;;16.75;11.45;;;8.50;99.90;;;;;;5047207;28;20060;-90
2022/04/17 07:20:07;;;;;;;12.57;10.55;;;8.60;99.90;;;;;;5032754;28;20037;-91
2022/04/17 07:22:34;;;;;;;15.85;10.63;;;8.80;99.90;;;;;;5030771;28;20513;-90
2022/04/17 07:25:01;;;;;;;13.40;10.10;;;8.80;99.90;;;;;;5031687;28;20040;-90
2022/04/17 07:27:48;;;;;;;14.18;10.32;;;8.90;99.90;;;;;;5030125;28;20025;-90
2022/04/17 07:30:22;;;;;;;11.85;10.10;;;9.00;99.90;;;;;;5019231;28;20481;-91
2022/04/17 07:32:53;;;;;;;15.05;10.15;;;9.10;99.90;;;;;;5046715;28;20103;-91
2022/04/17 07:35:20;;;;;;;12.38;9.20;;;9.20;99.90;;;;;;5030624;28;20473;-90
2022/04/17 07:37:51;;;;;;;11.52;9.20;;;9.20;99.90;;;;;;5029178;28;20072;-89
2022/04/17 07:40:19;;;;;;;11.75;9.45;;;9.40;99.90;;;;;;5029915;28;20044;-91
2022/04/17 07:42:48;;;;;;;11.73;9.60;;;9.60;99.90;;;;;;5042712;28;20029;-91
2022/04/17 07:45:15;;;;;;;11.15;9.68;;;9.70;99.90;;;;;;5030420;28;20060;-92
2022/04/17 07:47:45;;;;;;;11.88;9.30;;;9.70;99.90;;;;;;5029791;28;20047;-91
2022/04/17 07:50:23;;;;;;;13.80;9.75;;;9.80;99.90;;;;;;5022048;28;20044;-92
2022/04/17 07:52:49;;;;;;;12.63;9.60;;;10.00;99.90;;;;;;5026175;28;20116;-92
2022/04/17 07:55:16;;;;;;;14.60;9.88;;;10.10;99.90;;;;;;5023561;28;20178;-90
2022/04/17 08:00:31;;;;;;;11.50;9.15;;;10.50;99.90;;;;;;5046206;28;20483;-91
2022/04/17 08:03:07;;;;;;;10.77;8.98;;;10.40;99.90;;;;;;5024743;28;20232;-90
2022/04/17 08:05:40;;;;;;;13.57;8.38;;;10.40;99.90;;;;;;5027083;28;20450;-91
2022/04/17 08:08:09;;;;;;;10.85;8.70;;;10.70;99.90;;;;;;5044922;28;20139;-91
2022/04/17 08:10:35;;;;;;;11.40;8.48;;;10.80;99.90;;;;;;5028127;28;20325;-90
2022/04/17 08:13:01;;;;;;;10.65;8.30;;;10.80;99.90;;;;;;5029071;28;20143;-91
2022/04/17 08:15:27;;;;;;;13.10;9.00;;;10.90;99.90;;;;;;5027032;28;20119;-91
2022/04/17 08:17:53;;;;;;;10.98;8.25;;;11.00;99.90;;;;;;5029286;28;20072;-92
2022/04/17 08:20:20;;;;;;;9.93;7.82;;;11.20;99.90;;;;;;5029104;28;20113;-91
2022/04/17 08:22:56;;;;;;;11.20;7.97;;;11.30;99.90;;;;;;5026802;28;20036;-91
2022/04/17 08:25:22;;;;;;;9.05;7.88;;;11.50;99.90;;;;;;5041378;28;20111;-91
2022/04/17 08:27:53;;;;;;;10.95;8.15;;;11.60;99.90;;;;;;5025337;28;20113;-91
2022/04/17 08:30:27;;;;;;;8.52;7.43;;;11.70;99.90;;;;;;5026411;28;20048;-92
2022/04/17 08:32:56;;;;;;;10.50;7.93;;;11.80;99.90;;;;;;5024065;28;20033;-92
2022/04/17 08:35:22;;;;;;;8.75;6.70;;;11.70;99.90;;;;;;5029578;28;20074;-90
2022/04/17 08:37:49;;;;;;;8.15;6.85;;;12.00;99.90;;;;;;5024811;28;20036;-90
2022/04/17 08:40:17;;;;;;;8.50;6.70;;;12.00;99.90;;;;;;5027184;28;20032;-92
2022/04/17 08:42:46;;;;;;;7.63;6.40;;;12.10;99.90;;;;;;5021364;28;20039;-91
2022/04/17 08:45:13;;;;;;;8.68;6.45;;;12.20;99.90;;;;;;5025916;28;20040;-91
2022/04/17 08:47:41;;;;;;;7.03;6.18;;;12.20;99.90;;;;;;5028948;28;20257;-92
2022/04/17 08:50:13;;;;;;;8.45;6.82;;;12.40;99.90;;;;;;5024479;28;20094;-92
2022/04/17 08:52:41;;;;;;;9.18;6.57;;;12.30;99.90;;;;;;5026705;28;20083;-91
2022/04/17 08:55:07;;;;;;;9.05;5.65;;;12.50;99.90;;;;;;5027838;28;20125;-91
2022/04/17 08:57:33;;;;;;;8.45;6.20;;;12.50;99.90;;;;;;5022702;28;20033;-91
2022/04/17 08:59:59;;;;;;;9.90;5.80;;;12.60;99.90;;;;;;5024085;28;20125;-92
2022/04/17 09:02:25;;;;;;;7.70;6.03;;;12.90;99.90;;;;;;5027236;28;20040;-89
2022/04/17 09:04:51;;;;;;;7.00;6.13;;;13.00;99.90;;;;;;5026392;28;20106;-91
2022/04/17 09:07:20;;;;;;;7.72;6.20;;;13.10;99.90;;;;;;5025819;28;20055;-90
2022/04/17 09:09:53;;;;;;;7.88;6.60;;;13.10;99.90;;;;;;5019584;28;20040;-92
2022/04/17 09:12:26;;;;;;;8.70;6.60;;;13.20;99.90;;;;;;5026921;28;20043;-90
2022/04/17 09:14:55;;;;;;;8.52;6.15;;;13.20;99.90;;;;;;5028732;28;20144;-91
2022/04/17 09:17:29;;;;;;;6.47;5.72;;;13.30;99.90;;;;;;5030396;28;20041;-91
2022/04/17 09:19:54;;;;;;;8.57;6.57;;;13.50;99.90;;;;;;5054247;28;20483;-90
2022/04/17 09:22:20;;;;;;;6.43;5.78;;;13.60;99.90;;;;;;5036495;28;20040;-91
2022/04/17 09:24:46;;;;;;;9.38;5.85;;;13.80;99.90;;;;;;5026298;28;20568;-91
2022/04/17 09:27:12;;;;;;;6.93;5.72;;;13.90;99.90;;;;;;5026164;28;20041;-91
2022/04/17 09:29:38;;;;;;;7.03;6.22;;;13.80;99.90;;;;;;5027399;28;20037;-92
2022/04/17 09:32:09;;;;;;;8.20;6.40;;;13.80;99.90;;;;;;5048363;28;20498;-91
2022/04/17 09:34:52;;;;;;;8.32;5.43;;;14.00;99.90;;;;;;5023906;28;20040;-92
2022/04/17 09:37:27;;;;;;;6.22;5.32;;;14.00;99.90;;;;;;5020502;28;20519;-91
2022/04/17 09:40:04;;;;;;;7.00;4.88;;;14.10;99.90;;;;;;5031370;28;20037;-93
2022/04/17 09:42:33;;;;;;;6.10;5.15;;;14.30;99.90;;;;;;5027392;28;20044;-91
2022/04/17 09:45:00;;;;;;;7.00;4.97;;;14.40;99.90;;;;;;5034560;28;20048;-92
2022/04/17 09:47:28;;;;;;;7.20;5.57;;;14.60;99.90;;;;;;5027451;28;20047;-92
2022/04/17 09:49:55;;;;;;;6.05;5.30;;;14.60;99.90;;;;;;5028056;28;20533;-90
2022/04/17 09:52:23;;;;;;;6.43;5.07;;;14.60;99.90;;;;;;5025510;28;20037;-91
2022/04/17 09:54:50;;;;;;;7.10;5.50;;;14.70;99.90;;;;;;5025035;28;20221;-90
2022/04/17 09:57:39;;;;;;;6.50;5.18;;;14.80;99.90;;;;;;5026663;28;20119;-93
2022/04/17 10:00:25;;;;;;;5.95;4.70;;;14.40;99.90;;;;;;5030428;28;20526;-93
2022/04/17 10:02:54;;;;;;;5.40;4.57;;;14.60;99.90;;;;;;5020940;28;20782;-92
2022/04/17 10:05:23;;;;;;;5.97;4.70;;;14.80;99.90;;;;;;5023802;28;20041;-91
2022/04/17 10:07:52;;;;;;;7.38;5.18;;;15.00;99.90;;;;;;5027747;28;20038;-92
2022/04/17 10:10:18;;;;;;;7.05;5.40;;;15.30;99.90;;;;;;5015941;28;20126;-91
2022/04/17 10:12:46;;;;;;;7.38;4.80;;;15.20;99.90;;;;;;5007988;28;20053;-91
2022/04/17 10:15:12;;;;;;;6.80;5.18;;;15.40;99.90;;;;;;5028319;28;20052;-92
2022/04/17 10:17:40;;;;;;;9.05;5.80;;;15.40;99.90;;;;;;5031636;28;20125;-92
2022/04/17 10:20:11;;;;;;;7.70;5.80;;;15.40;99.90;;;;;;5029324;28;20036;-91
2022/04/17 10:22:43;;;;;;;7.35;4.78;;;15.60;99.90;;;;;;5044467;28;20745;-92
2022/04/17 10:25:12;;;;;;;6.22;5.20;;;15.80;99.90;;;;;;5034949;28;20067;-91
2022/04/17 10:27:53;;;;;;;6.90;5.78;;;15.70;99.90;;;;;;5041074;28;20040;-90
2022/04/17 10:30:27;;;;;;;7.15;5.40;;;15.90;99.90;;;;;;5031671;28;20037;-91
2022/04/17 10:32:56;;;;;;;7.45;5.60;;;16.10;99.90;;;;;;5031182;28;20488;-92
2022/04/17 10:36:00;;;;;;;7.05;5.18;;;15.80;99.90;;;;;;5032354;28;20044;-91
2022/04/17 10:38:27;;;;;;;6.63;5.43;;;16.20;99.90;;;;;;5028642;28;20036;-92
2022/04/17 10:41:12;;;;;;;6.10;5.18;;;15.90;99.90;;;;;;5032821;28;20122;-92
2022/04/17 10:43:46;;;;;;;7.57;5.05;;;16.40;99.90;;;;;;5045216;28;20166;-93
2022/04/17 10:46:17;;;;;;;6.55;5.28;;;16.30;99.90;;;;;;5020300;28;20329;-91
2022/04/17 10:49:12;;;;;;;6.25;5.05;;;16.20;99.90;;;;;;5025329;28;20070;-92
2022/04/17 10:51:38;;;;;;;6.03;4.78;;;16.70;99.90;;;;;;5021463;28;20366;-90
2022/04/17 10:54:11;;;;;;;7.90;5.32;;;16.70;99.90;;;;;;5031220;28;20040;-92
2022/04/17 10:56:41;;;;;;;5.90;4.93;;;16.70;99.90;;;;;;5031081;28;20032;-91
2022/04/17 10:59:20;;;;;;;6.32;5.07;;;16.60;99.90;;;;;;5021620;28;20099;-93
2022/04/17 11:01:50;;;;;;;6.85;4.85;;;16.60;99.90;;;;;;5031199;28;20120;-92
2022/04/17 11:04:22;;;;;;;5.78;4.88;;;16.90;99.90;;;;;;5039226;28;20076;-91
2022/04/17 11:07:07;;;;;;;6.30;5.28;;;16.80;99.90;;;;;;5021406;28;20036;-90
2022/04/17 11:09:36;;;;;;;6.97;5.30;;;16.80;99.90;;;;;;5026421;28;20120;-93
2022/04/17 11:12:10;;;;;;;7.25;5.85;;;16.90;99.90;;;;;;5020095;28;20512;-92
2022/04/17 11:14:39;;;;;;;6.72;5.03;;;16.80;99.90;;;;;;5025536;28;20052;-92
2022/04/17 11:17:08;;;;;;;6.63;5.05;;;16.90;99.90;;;;;;5017567;28;20051;-92
2022/04/17 11:19:40;;;;;;;8.05;6.65;;;17.40;99.90;;;;;;5017378;28;20032;-92
2022/04/17 11:22:08;;;;;;;7.07;5.40;;;17.90;99.90;;;;;;5029381;28;20037;-91
2022/04/17 11:24:56;;;;;;;6.75;5.22;;;17.70;99.90;;;;;;5021126;28;20266;-92
2022/04/17 11:27:41;;;;;;;8.55;5.45;;;17.90;99.90;;;;;;5020176;28;20109;-91
2022/04/17 11:30:08;;;;;;;7.75;6.18;;;17.90;99.90;;;;;;5047669;28;20333;-92
2022/04/17 11:32:35;;;;;;;7.05;4.70;;;18.30;99.90;;;;;;5018518;28;20032;-91
2022/04/17 11:35:03;;;;;;;8.50;5.28;;;18.20;99.90;;;;;;5026921;28;20581;-92
2022/04/17 11:37:31;;;;;;;7.93;5.25;;;17.60;99.90;;;;;;5025835;28;20032;-91
2022/04/17 11:40:06;;;;;;;7.97;5.82;;;18.00;99.90;;;;;;5024835;28;20054;-92
2022/04/17 11:42:43;;;;;;;5.60;4.63;;;18.10;99.90;;;;;;5021189;28;20075;-90
2022/04/17 11:45:13;;;;;;;6.28;5.10;;;18.10;99.90;;;;;;5028746;28;20044;-92
2022/04/17 11:47:41;;;;;;;7.25;4.47;;;18.00;99.90;;;;;;5029633;28;20185;-90
2022/04/17 11:50:11;;;;;;;6.25;4.22;;;18.60;99.90;;;;;;5021848;28;20080;-91
2022/04/17 11:52:40;;;;;;;5.15;4.50;;;18.70;99.90;;;;;;5024546;28;20642;-92
2022/04/17 11:55:12;;;;;;;9.88;6.55;;;18.90;99.90;;;;;;5029688;28;20343;-90
2022/04/17 11:57:38;;;;;;;5.18;4.63;;;18.90;99.90;;;;;;5016467;28;20036;-91
2022/04/17 12:00:05;;;;;;;6.93;4.90;;;18.60;99.90;;;;;;5023470;28;20048;-90
2022/04/17 12:02:31;;;;;;;6.43;4.45;;;18.80;99.90;;;;;;5021670;28;20059;-90
2022/04/17 12:05:12;;;;;;;5.65;4.50;;;19.20;99.90;;;;;;5017529;28;20044;-92
2022/04/17 12:07:38;;;;;;;5.40;4.72;;;19.20;99.90;;;;;;5017601;28;20048;-92
2022/04/17 12:10:09;;;;;;;5.78;4.78;;;18.90;99.90;;;;;;5030143;28;20040;-90
2022/04/17 12:12:41;;;;;;;14.00;7.88;;;19.30;99.90;;;;;;5008739;28;20033;-90
2022/04/17 12:15:09;;;;;;;6.78;5.10;;;19.20;99.90;;;;;;5012532;28;20048;-91
2022/04/17 12:17:36;;;;;;;6.88;4.90;;;19.10;99.90;;;;;;5028336;28;20139;-91
2022/04/17 12:20:12;;;;;;;5.95;4.43;;;19.50;99.90;;;;;;5017732;28;20036;-91
2022/04/17 12:22:39;;;;;;;5.95;4.70;;;19.30;99.90;;;;;;5023250;28;20032;-91
2022/04/17 12:25:18;;;;;;;6.45;4.68;;;19.70;99.90;;;;;;5020598;28;20106;-91
2022/04/17 12:27:48;;;;;;;5.55;4.75;;;19.60;99.90;;;;;;5022638;28;20040;-91
2022/04/17 12:30:25;;;;;;;6.75;4.43;;;19.50;99.90;;;;;;5022725;28;20579;-92
2022/04/17 12:32:55;;;;;;;6.22;4.50;;;20.00;99.90;;;;;;5034625;28;20044;-92
2022/04/17 12:35:25;;;;;;;5.97;4.80;;;20.10;99.90;;;;;;5019823;28;20044;-91
2022/04/17 12:38:05;;;;;;;6.15;5.18;;;20.20;99.90;;;;;;5037586;28;20127;-92
2022/04/17 12:40:36;;;;;;;6.63;5.13;;;20.10;99.90;;;;;;5025717;28;20413;-92
2022/04/17 12:43:20;;;;;;;6.85;5.00;;;19.90;99.90;;;;;;5034152;28;20114;-90
2022/04/17 12:46:04;;;;;;;6.18;5.00;;;19.60;99.90;;;;;;5068866;28;20622;-90
2022/04/17 12:48:34;;;;;;;5.43;4.65;;;19.90;99.90;;;;;;5018981;28;20044;-90
2022/04/17 12:51:09;;;;;;;7.38;5.40;;;20.30;99.90;;;;;;5026393;28;20052;-91
2022/04/17 12:53:43;;;;;;;5.68;5.00;;;20.40;99.90;;;;;;5023431;28;20094;-89
2022/04/17 12:56:10;;;;;;;6.25;5.18;;;20.60;99.90;;;;;;5028043;28;20114;-91
2022/04/17 12:58:56;;;;;;;5.03;4.43;;;20.70;99.90;;;;;;5025902;28;20209;-90
2022/04/17 13:01:45;;;;;;;8.18;5.13;;;20.70;99.90;;;;;;5027178;28;20048;-90
2022/04/17 13:04:21;;;;;;;5.65;4.68;;;20.60;99.90;;;;;;5043444;28;20067;-90
2022/04/17 13:06:50;;;;;;;5.47;4.65;;;20.90;99.90;;;;;;5034761;28;20037;-90
2022/04/17 13:09:22;;;;;;;7.40;4.80;;;21.10;99.90;;;;;;5029628;28;20163;-90
2022/04/17 13:11:53;;;;;;;6.38;4.80;;;20.60;99.90;;;;;;5027543;28;20029;-91
2022/04/17 13:14:20;;;;;;;5.95;4.47;;;20.90;99.90;;;;;;5034242;28;20504;-92
2022/04/17 13:17:00;;;;;;;4.75;4.07;;;21.10;99.90;;;;;;5008069;28;20156;-90
2022/04/17 13:19:27;;;;;;;7.72;4.75;;;20.80;99.90;;;;;;5017729;28;20044;-88
2022/04/17 13:21:55;;;;;;;6.10;4.00;;;21.20;99.90;;;;;;5019989;28;20059;-90
2022/04/17 13:24:26;;;;;;;5.63;4.10;;;21.70;99.90;;;;;;5022273;28;20054;-91
2022/04/17 13:26:53;;;;;;;4.80;4.28;;;21.40;99.90;;;;;;5059967;28;20392;-90
2022/04/17 13:29:20;;;;;;;5.10;3.88;;;21.10;99.90;;;;;;5042023;28;20499;-89
2022/04/17 13:31:46;;;;;;;5.20;4.40;;;21.40;99.90;;;;;;5026319;28;20245;-90
2022/04/17 13:34:12;;;;;;;6.57;4.40;;;21.70;99.90;;;;;;5021477;28;20032;-90
2022/04/17 13:36:38;;;;;;;6.93;4.63;;;21.50;99.90;;;;;;5022010;28;20151;-91
2022/04/17 13:39:04;;;;;;;5.13;4.15;;;21.00;99.90;;;;;;5023780;28;20140;-90
2022/04/17 13:41:30;;;;;;;6.57;4.60;;;21.60;99.90;;;;;;5026039;28;20071;-90
2022/04/17 13:43:56;;;;;;;5.97;4.60;;;21.60;99.90;;;;;;5029379;28;20041;-90
2022/04/17 13:46:23;;;;;;;6.15;4.20;;;21.40;99.90;;;;;;5023093;28;20037;-89
2022/04/17 13:48:49;;;;;;;6.45;5.05;;;21.50;99.90;;;;;;5023893;28;20209;-90
2022/04/17 13:51:15;;;;;;;6.50;4.97;;;21.90;99.90;;;;;;5025963;28;20449;-91
2022/04/17 13:53:41;;;;;;;6.45;4.90;;;21.60;99.90;;;;;;5029738;28;20519;-90